sensor_id;sensor_type;location;lat;lon;timestamp;temperature;humidity
913;DHT22;443;51.448;7.028;2022-10-18T00:02:01;17.90;81.90
913;DHT22;443;51.448;7.028;2022-10-18T00:04:28;17.90;82.60
913;DHT22;443;51.448;7.028;2022-10-18T00:06:55;17.90;81.90
913;DHT22;443;51.448;7.028;2022-10-18T00:09:21;17.90;81.90
913;DHT22;443;51.448;7.028;2022-10-18T00:11:48;17.90;82.00
913;DHT22;443;51.448;7.028;2022-10-18T00:14:16;17.90;82.00
913;DHT22;443;51.448;7.028;2022-10-18T00:16:44;17.90;82.00
913;DHT22;443;51.448;7.028;2022-10-18T00:19:10;17.90;82.00
913;DHT22;443;51.448;7.028;2022-10-18T00:21:37;17.90;82.00
913;DHT22;443;51.448;7.028;2022-10-18T00:24:05;17.90;81.90
913;DHT22;443;51.448;7.028;2022-10-18T00:26:31;17.90;82.10
913;DHT22;443;51.448;7.028;2022-10-18T00:29:00;17.90;82.00
913;DHT22;443;51.448;7.028;2022-10-18T00:31:29;17.90;82.10
913;DHT22;443;51.448;7.028;2022-10-18T00:33:59;17.90;82.10
913;DHT22;443;51.448;7.028;2022-10-18T00:36:28;17.90;82.10
913;DHT22;443;51.448;7.028;2022-10-18T00:38:56;17.80;82.00
913;DHT22;443;51.448;7.028;2022-10-18T00:41:25;17.90;82.10
913;DHT22;443;51.448;7.028;2022-10-18T00:43:54;17.90;82.00
913;DHT22;443;51.448;7.028;2022-10-18T00:46:22;17.90;82.20
913;DHT22;443;51.448;7.028;2022-10-18T00:48:49;17.80;82.10
913;DHT22;443;51.448;7.028;2022-10-18T00:51:19;17.90;82.10
913;DHT22;443;51.448;7.028;2022-10-18T00:53:47;17.80;82.00
913;DHT22;443;51.448;7.028;2022-10-18T00:56:14;17.90;82.10
913;DHT22;443;51.448;7.028;2022-10-18T00:58:42;17.90;82.10
913;DHT22;443;51.448;7.028;2022-10-18T01:01:10;17.80;82.00
913;DHT22;443;51.448;7.028;2022-10-18T01:03:37;17.80;82.10
913;DHT22;443;51.448;7.028;2022-10-18T01:06:04;17.80;81.90
913;DHT22;443;51.448;7.028;2022-10-18T01:08:49;17.80;82.00
913;DHT22;443;51.448;7.028;2022-10-18T01:11:42;17.80;82.20
913;DHT22;443;51.448;7.028;2022-10-18T01:14:21;17.80;82.10
913;DHT22;443;51.448;7.028;2022-10-18T01:16:57;17.80;82.10
913;DHT22;443;51.448;7.028;2022-10-18T01:19:47;17.80;82.20
913;DHT22;443;51.448;7.028;2022-10-18T01:22:22;17.80;82.30
913;DHT22;443;51.448;7.028;2022-10-18T01:25:01;17.80;82.30
913;DHT22;443;51.448;7.028;2022-10-18T01:27:54;17.80;82.20
913;DHT22;443;51.448;7.028;2022-10-18T01:30:42;17.80;82.20
913;DHT22;443;51.448;7.028;2022-10-18T01:33:18;17.80;82.20
913;DHT22;443;51.448;7.028;2022-10-18T01:35:50;17.80;82.40
913;DHT22;443;51.448;7.028;2022-10-18T01:38:19;17.80;82.30
913;DHT22;443;51.448;7.028;2022-10-18T01:40:48;17.80;82.20
913;DHT22;443;51.448;7.028;2022-10-18T01:43:17;17.80;82.30
913;DHT22;443;51.448;7.028;2022-10-18T01:45:46;17.80;82.50
913;DHT22;443;51.448;7.028;2022-10-18T01:48:15;17.80;82.40
913;DHT22;443;51.448;7.028;2022-10-18T01:50:42;17.80;82.60
913;DHT22;443;51.448;7.028;2022-10-18T01:53:23;17.80;82.50
913;DHT22;443;51.448;7.028;2022-10-18T01:55:55;17.80;82.40
913;DHT22;443;51.448;7.028;2022-10-18T01:58:28;17.80;82.40
913;DHT22;443;51.448;7.028;2022-10-18T02:01:02;17.80;82.40
913;DHT22;443;51.448;7.028;2022-10-18T02:03:32;17.80;83.10
913;DHT22;443;51.448;7.028;2022-10-18T02:06:05;17.80;83.10
913;DHT22;443;51.448;7.028;2022-10-18T02:08:36;17.80;82.40
913;DHT22;443;51.448;7.028;2022-10-18T02:11:06;17.80;82.40
913;DHT22;443;51.448;7.028;2022-10-18T02:13:37;17.80;82.40
913;DHT22;443;51.448;7.028;2022-10-18T02:16:09;17.80;82.70
913;DHT22;443;51.448;7.028;2022-10-18T02:18:40;17.80;83.00
913;DHT22;443;51.448;7.028;2022-10-18T02:21:10;17.80;82.50
913;DHT22;443;51.448;7.028;2022-10-18T02:23:38;17.80;82.40
913;DHT22;443;51.448;7.028;2022-10-18T02:26:05;17.80;82.40
913;DHT22;443;51.448;7.028;2022-10-18T02:28:32;17.80;82.30
913;DHT22;443;51.448;7.028;2022-10-18T02:31:05;17.80;82.40
913;DHT22;443;51.448;7.028;2022-10-18T02:33:41;17.80;82.50
913;DHT22;443;51.448;7.028;2022-10-18T02:36:12;17.80;82.50
913;DHT22;443;51.448;7.028;2022-10-18T02:38:41;17.80;82.50
913;DHT22;443;51.448;7.028;2022-10-18T02:41:08;17.80;82.60
913;DHT22;443;51.448;7.028;2022-10-18T02:43:35;17.80;82.50
913;DHT22;443;51.448;7.028;2022-10-18T02:46:02;17.80;82.40
913;DHT22;443;51.448;7.028;2022-10-18T02:48:29;17.80;82.80
913;DHT22;443;51.448;7.028;2022-10-18T02:50:57;17.80;83.20
913;DHT22;443;51.448;7.028;2022-10-18T02:53:24;17.80;82.50
913;DHT22;443;51.448;7.028;2022-10-18T02:55:51;17.70;82.50
913;DHT22;443;51.448;7.028;2022-10-18T02:58:17;17.80;82.50
913;DHT22;443;51.448;7.028;2022-10-18T03:00:44;17.70;82.60
913;DHT22;443;51.448;7.028;2022-10-18T03:03:11;17.80;82.70
913;DHT22;443;51.448;7.028;2022-10-18T03:05:38;17.80;82.50
913;DHT22;443;51.448;7.028;2022-10-18T03:08:06;17.80;82.70
913;DHT22;443;51.448;7.028;2022-10-18T03:10:33;17.70;82.30
913;DHT22;443;51.448;7.028;2022-10-18T03:12:59;17.80;82.60
913;DHT22;443;51.448;7.028;2022-10-18T03:15:26;17.80;82.50
913;DHT22;443;51.448;7.028;2022-10-18T03:17:53;17.70;83.00
913;DHT22;443;51.448;7.028;2022-10-18T03:20:20;17.70;82.60
913;DHT22;443;51.448;7.028;2022-10-18T03:22:47;17.80;82.70
913;DHT22;443;51.448;7.028;2022-10-18T03:25:15;17.80;82.60
913;DHT22;443;51.448;7.028;2022-10-18T03:27:42;17.80;82.60
913;DHT22;443;51.448;7.028;2022-10-18T03:30:09;17.70;82.60
913;DHT22;443;51.448;7.028;2022-10-18T03:32:38;17.70;82.60
913;DHT22;443;51.448;7.028;2022-10-18T03:35:06;17.80;82.60
913;DHT22;443;51.448;7.028;2022-10-18T03:37:33;17.80;82.60
913;DHT22;443;51.448;7.028;2022-10-18T03:40:00;17.70;82.40
913;DHT22;443;51.448;7.028;2022-10-18T03:42:28;17.80;82.60
913;DHT22;443;51.448;7.028;2022-10-18T03:44:55;17.80;82.70
913;DHT22;443;51.448;7.028;2022-10-18T03:47:22;17.80;82.70
913;DHT22;443;51.448;7.028;2022-10-18T03:49:49;17.80;82.60
913;DHT22;443;51.448;7.028;2022-10-18T03:52:15;17.80;82.70
913;DHT22;443;51.448;7.028;2022-10-18T03:54:42;17.70;82.70
913;DHT22;443;51.448;7.028;2022-10-18T03:57:09;17.80;82.50
913;DHT22;443;51.448;7.028;2022-10-18T03:59:37;17.70;82.40
913;DHT22;443;51.448;7.028;2022-10-18T04:02:04;17.80;82.70
913;DHT22;443;51.448;7.028;2022-10-18T04:04:30;17.70;82.50
913;DHT22;443;51.448;7.028;2022-10-18T04:06:57;17.80;82.70
913;DHT22;443;51.448;7.028;2022-10-18T04:09:24;17.70;82.30
913;DHT22;443;51.448;7.028;2022-10-18T04:11:51;17.70;82.60
913;DHT22;443;51.448;7.028;2022-10-18T04:14:18;17.70;82.50
913;DHT22;443;51.448;7.028;2022-10-18T04:16:47;17.80;82.60
913;DHT22;443;51.448;7.028;2022-10-18T04:19:13;17.80;82.50
913;DHT22;443;51.448;7.028;2022-10-18T04:21:40;17.80;82.60
913;DHT22;443;51.448;7.028;2022-10-18T04:24:07;17.80;82.70
913;DHT22;443;51.448;7.028;2022-10-18T04:26:34;17.80;82.80
913;DHT22;443;51.448;7.028;2022-10-18T04:29:01;17.70;82.80
913;DHT22;443;51.448;7.028;2022-10-18T04:31:27;17.80;82.70
913;DHT22;443;51.448;7.028;2022-10-18T04:33:56;17.70;83.00
913;DHT22;443;51.448;7.028;2022-10-18T04:36:22;17.70;83.10
913;DHT22;443;51.448;7.028;2022-10-18T04:38:49;17.70;82.80
913;DHT22;443;51.448;7.028;2022-10-18T04:41:16;17.80;82.50
913;DHT22;443;51.448;7.028;2022-10-18T04:43:43;17.70;82.60
913;DHT22;443;51.448;7.028;2022-10-18T04:46:09;17.70;82.50
913;DHT22;443;51.448;7.028;2022-10-18T04:48:36;17.80;82.90
913;DHT22;443;51.448;7.028;2022-10-18T04:51:04;17.80;82.70
913;DHT22;443;51.448;7.028;2022-10-18T04:53:31;17.80;82.70
913;DHT22;443;51.448;7.028;2022-10-18T04:55:58;17.80;82.50
913;DHT22;443;51.448;7.028;2022-10-18T04:58:25;17.80;82.60
913;DHT22;443;51.448;7.028;2022-10-18T05:00:52;17.80;82.60
913;DHT22;443;51.448;7.028;2022-10-18T05:03:18;17.80;82.60
913;DHT22;443;51.448;7.028;2022-10-18T05:05:45;17.80;82.60
913;DHT22;443;51.448;7.028;2022-10-18T05:08:13;17.80;83.00
913;DHT22;443;51.448;7.028;2022-10-18T05:10:40;17.80;82.80
913;DHT22;443;51.448;7.028;2022-10-18T05:13:07;17.80;82.60
913;DHT22;443;51.448;7.028;2022-10-18T05:15:34;17.80;82.50
913;DHT22;443;51.448;7.028;2022-10-18T05:18:00;17.80;82.50
913;DHT22;443;51.448;7.028;2022-10-18T05:20:27;17.80;82.60
913;DHT22;443;51.448;7.028;2022-10-18T05:22:54;17.90;82.70
913;DHT22;443;51.448;7.028;2022-10-18T05:25:22;17.90;82.60
913;DHT22;443;51.448;7.028;2022-10-18T05:27:49;17.90;82.60
913;DHT22;443;51.448;7.028;2022-10-18T05:30:16;17.90;82.60
913;DHT22;443;51.448;7.028;2022-10-18T05:32:42;17.90;82.50
913;DHT22;443;51.448;7.028;2022-10-18T05:35:09;17.90;82.60
913;DHT22;443;51.448;7.028;2022-10-18T05:37:36;17.90;82.50
913;DHT22;443;51.448;7.028;2022-10-18T05:40:03;17.90;82.50
913;DHT22;443;51.448;7.028;2022-10-18T05:42:31;17.90;82.50
913;DHT22;443;51.448;7.028;2022-10-18T05:44:58;17.90;82.60
913;DHT22;443;51.448;7.028;2022-10-18T05:47:25;17.90;82.60
913;DHT22;443;51.448;7.028;2022-10-18T05:49:52;17.90;82.60
913;DHT22;443;51.448;7.028;2022-10-18T05:52:18;17.90;82.60
913;DHT22;443;51.448;7.028;2022-10-18T05:54:45;17.90;82.50
913;DHT22;443;51.448;7.028;2022-10-18T05:57:12;17.90;82.60
913;DHT22;443;51.448;7.028;2022-10-18T05:59:40;17.90;82.50
913;DHT22;443;51.448;7.028;2022-10-18T06:02:08;17.90;82.50
913;DHT22;443;51.448;7.028;2022-10-18T06:04:35;17.90;82.50
913;DHT22;443;51.448;7.028;2022-10-18T06:07:02;17.90;82.50
913;DHT22;443;51.448;7.028;2022-10-18T06:09:29;17.90;82.50
913;DHT22;443;51.448;7.028;2022-10-18T06:11:56;17.90;82.40
913;DHT22;443;51.448;7.028;2022-10-18T06:14:23;17.90;82.50
913;DHT22;443;51.448;7.028;2022-10-18T06:16:51;17.90;82.50
913;DHT22;443;51.448;7.028;2022-10-18T06:19:18;17.90;82.40
913;DHT22;443;51.448;7.028;2022-10-18T06:21:44;17.90;82.50
913;DHT22;443;51.448;7.028;2022-10-18T06:24:11;17.90;82.50
913;DHT22;443;51.448;7.028;2022-10-18T06:26:38;17.90;82.40
913;DHT22;443;51.448;7.028;2022-10-18T06:29:05;17.90;82.40
913;DHT22;443;51.448;7.028;2022-10-18T06:31:32;17.90;82.60
913;DHT22;443;51.448;7.028;2022-10-18T06:34:00;17.90;82.60
913;DHT22;443;51.448;7.028;2022-10-18T06:36:27;17.90;82.60
913;DHT22;443;51.448;7.028;2022-10-18T06:38:54;17.90;82.50
913;DHT22;443;51.448;7.028;2022-10-18T06:41:22;17.90;82.60
913;DHT22;443;51.448;7.028;2022-10-18T06:43:49;17.90;82.50
913;DHT22;443;51.448;7.028;2022-10-18T06:46:18;17.90;82.50
913;DHT22;443;51.448;7.028;2022-10-18T06:48:45;17.90;82.60
913;DHT22;443;51.448;7.028;2022-10-18T06:51:13;17.90;82.40
913;DHT22;443;51.448;7.028;2022-10-18T06:53:40;17.90;82.50
913;DHT22;443;51.448;7.028;2022-10-18T06:56:10;17.90;82.50
913;DHT22;443;51.448;7.028;2022-10-18T06:58:37;17.90;82.50
913;DHT22;443;51.448;7.028;2022-10-18T07:01:05;17.90;82.50
913;DHT22;443;51.448;7.028;2022-10-18T07:03:32;17.90;82.50
913;DHT22;443;51.448;7.028;2022-10-18T07:06:00;17.90;82.60
913;DHT22;443;51.448;7.028;2022-10-18T07:08:28;17.90;82.50
913;DHT22;443;51.448;7.028;2022-10-18T07:10:55;17.90;82.50
913;DHT22;443;51.448;7.028;2022-10-18T07:13:22;17.90;82.60
913;DHT22;443;51.448;7.028;2022-10-18T07:16:02;17.90;82.60
913;DHT22;443;51.448;7.028;2022-10-18T07:18:31;17.90;82.50
913;DHT22;443;51.448;7.028;2022-10-18T07:21:00;17.90;82.50
913;DHT22;443;51.448;7.028;2022-10-18T07:23:28;17.90;82.50
913;DHT22;443;51.448;7.028;2022-10-18T07:25:55;17.90;82.50
913;DHT22;443;51.448;7.028;2022-10-18T07:28:22;17.90;82.50
913;DHT22;443;51.448;7.028;2022-10-18T07:30:48;17.90;82.50
913;DHT22;443;51.448;7.028;2022-10-18T07:33:15;17.90;82.50
913;DHT22;443;51.448;7.028;2022-10-18T07:35:42;17.90;82.40
913;DHT22;443;51.448;7.028;2022-10-18T07:38:09;17.90;82.40
913;DHT22;443;51.448;7.028;2022-10-18T07:40:37;17.90;82.30
913;DHT22;443;51.448;7.028;2022-10-18T07:43:03;17.90;82.30
913;DHT22;443;51.448;7.028;2022-10-18T07:45:31;18.00;82.40
913;DHT22;443;51.448;7.028;2022-10-18T07:47:58;17.90;82.40
913;DHT22;443;51.448;7.028;2022-10-18T07:50:25;17.90;82.40
913;DHT22;443;51.448;7.028;2022-10-18T07:52:51;17.90;82.30
913;DHT22;443;51.448;7.028;2022-10-18T07:55:18;17.90;82.30
913;DHT22;443;51.448;7.028;2022-10-18T07:57:46;18.00;82.50
913;DHT22;443;51.448;7.028;2022-10-18T08:00:13;17.90;82.40
913;DHT22;443;51.448;7.028;2022-10-18T08:02:40;18.00;82.40
913;DHT22;443;51.448;7.028;2022-10-18T08:05:08;17.90;83.10
913;DHT22;443;51.448;7.028;2022-10-18T08:07:34;18.00;82.30
913;DHT22;443;51.448;7.028;2022-10-18T08:10:02;17.90;82.20
913;DHT22;443;51.448;7.028;2022-10-18T08:12:29;18.00;82.30
913;DHT22;443;51.448;7.028;2022-10-18T08:14:57;18.00;82.40
913;DHT22;443;51.448;7.028;2022-10-18T08:17:23;17.90;82.20
913;DHT22;443;51.448;7.028;2022-10-18T08:19:50;18.00;82.50
913;DHT22;443;51.448;7.028;2022-10-18T08:22:17;18.00;82.40
913;DHT22;443;51.448;7.028;2022-10-18T08:24:44;18.00;82.50
913;DHT22;443;51.448;7.028;2022-10-18T08:27:11;18.00;82.50
913;DHT22;443;51.448;7.028;2022-10-18T08:29:37;18.00;82.60
913;DHT22;443;51.448;7.028;2022-10-18T08:32:06;18.00;82.70
913;DHT22;443;51.448;7.028;2022-10-18T08:34:33;17.90;82.30
913;DHT22;443;51.448;7.028;2022-10-18T08:37:00;18.00;82.60
913;DHT22;443;51.448;7.028;2022-10-18T08:39:27;18.00;82.40
913;DHT22;443;51.448;7.028;2022-10-18T08:42:18;18.00;82.50
913;DHT22;443;51.448;7.028;2022-10-18T08:44:50;17.90;82.40
913;DHT22;443;51.448;7.028;2022-10-18T08:47:20;18.00;82.50
913;DHT22;443;51.448;7.028;2022-10-18T08:49:50;17.90;82.60
913;DHT22;443;51.448;7.028;2022-10-18T08:52:25;17.90;82.30
913;DHT22;443;51.448;7.028;2022-10-18T08:54:59;17.90;82.70
913;DHT22;443;51.448;7.028;2022-10-18T08:57:26;17.90;82.50
913;DHT22;443;51.448;7.028;2022-10-18T08:59:53;17.90;82.80
913;DHT22;443;51.448;7.028;2022-10-18T09:02:34;17.90;82.30
913;DHT22;443;51.448;7.028;2022-10-18T09:05:13;18.00;82.60
913;DHT22;443;51.448;7.028;2022-10-18T09:08:03;18.00;82.50
913;DHT22;443;51.448;7.028;2022-10-18T09:10:42;18.00;82.50
913;DHT22;443;51.448;7.028;2022-10-18T09:13:25;17.90;83.10
913;DHT22;443;51.448;7.028;2022-10-18T09:15:56;17.90;82.30
913;DHT22;443;51.448;7.028;2022-10-18T09:18:40;18.00;82.40
913;DHT22;443;51.448;7.028;2022-10-18T09:21:17;17.90;82.30
913;DHT22;443;51.448;7.028;2022-10-18T09:23:47;18.00;82.50
913;DHT22;443;51.448;7.028;2022-10-18T09:26:15;18.00;82.90
913;DHT22;443;51.448;7.028;2022-10-18T09:28:57;18.00;82.90
913;DHT22;443;51.448;7.028;2022-10-18T09:31:35;18.00;82.80
913;DHT22;443;51.448;7.028;2022-10-18T09:34:11;17.90;82.40
913;DHT22;443;51.448;7.028;2022-10-18T09:36:39;17.90;82.60
913;DHT22;443;51.448;7.028;2022-10-18T09:39:11;18.00;82.90
913;DHT22;443;51.448;7.028;2022-10-18T09:41:42;17.90;82.60
913;DHT22;443;51.448;7.028;2022-10-18T09:44:14;18.00;82.60
913;DHT22;443;51.448;7.028;2022-10-18T09:46:46;18.00;82.50
913;DHT22;443;51.448;7.028;2022-10-18T09:49:20;18.00;82.70
913;DHT22;443;51.448;7.028;2022-10-18T09:51:48;18.00;82.80
913;DHT22;443;51.448;7.028;2022-10-18T09:54:23;18.00;82.30
913;DHT22;443;51.448;7.028;2022-10-18T09:56:56;18.00;82.40
913;DHT22;443;51.448;7.028;2022-10-18T09:59:35;18.00;82.60
913;DHT22;443;51.448;7.028;2022-10-18T10:02:03;18.00;82.40
913;DHT22;443;51.448;7.028;2022-10-18T10:04:31;18.00;82.50
913;DHT22;443;51.448;7.028;2022-10-18T10:07:00;17.90;82.30
913;DHT22;443;51.448;7.028;2022-10-18T10:09:28;18.00;82.40
913;DHT22;443;51.448;7.028;2022-10-18T10:11:57;18.00;82.30
913;DHT22;443;51.448;7.028;2022-10-18T10:14:25;18.00;82.30
913;DHT22;443;51.448;7.028;2022-10-18T10:16:54;18.00;82.20
913;DHT22;443;51.448;7.028;2022-10-18T10:19:27;18.00;82.10
913;DHT22;443;51.448;7.028;2022-10-18T10:21:59;18.00;82.20
913;DHT22;443;51.448;7.028;2022-10-18T10:24:34;18.00;82.00
913;DHT22;443;51.448;7.028;2022-10-18T10:27:04;18.00;82.10
913;DHT22;443;51.448;7.028;2022-10-18T10:29:54;18.00;82.00
913;DHT22;443;51.448;7.028;2022-10-18T10:32:24;18.00;82.10
913;DHT22;443;51.448;7.028;2022-10-18T10:34:52;18.10;82.30
913;DHT22;443;51.448;7.028;2022-10-18T10:37:32;18.10;82.10
913;DHT22;443;51.448;7.028;2022-10-18T10:40:20;18.10;82.00
913;DHT22;443;51.448;7.028;2022-10-18T10:42:56;18.10;82.00
913;DHT22;443;51.448;7.028;2022-10-18T10:45:25;18.10;81.90
913;DHT22;443;51.448;7.028;2022-10-18T10:47:53;18.10;81.90
913;DHT22;443;51.448;7.028;2022-10-18T10:50:25;18.10;81.80
913;DHT22;443;51.448;7.028;2022-10-18T10:52:53;18.10;81.80
913;DHT22;443;51.448;7.028;2022-10-18T10:55:23;18.10;81.80
913;DHT22;443;51.448;7.028;2022-10-18T10:57:54;18.10;81.80
913;DHT22;443;51.448;7.028;2022-10-18T11:00:36;18.10;81.80
913;DHT22;443;51.448;7.028;2022-10-18T11:03:12;18.10;81.70
913;DHT22;443;51.448;7.028;2022-10-18T11:05:44;18.10;81.70
913;DHT22;443;51.448;7.028;2022-10-18T11:08:15;18.10;81.60
913;DHT22;443;51.448;7.028;2022-10-18T11:10:58;18.10;81.50
913;DHT22;443;51.448;7.028;2022-10-18T11:13:33;18.10;81.50
913;DHT22;443;51.448;7.028;2022-10-18T11:16:11;18.20;81.60
913;DHT22;443;51.448;7.028;2022-10-18T11:18:39;18.20;81.50
913;DHT22;443;51.448;7.028;2022-10-18T11:21:10;18.20;81.30
913;DHT22;443;51.448;7.028;2022-10-18T11:23:43;18.20;81.30
913;DHT22;443;51.448;7.028;2022-10-18T11:26:39;18.20;81.50
913;DHT22;443;51.448;7.028;2022-10-18T11:29:22;18.20;81.40
913;DHT22;443;51.448;7.028;2022-10-18T11:32:00;18.20;81.50
913;DHT22;443;51.448;7.028;2022-10-18T11:34:42;18.20;81.40
913;DHT22;443;51.448;7.028;2022-10-18T11:37:17;18.20;81.40
913;DHT22;443;51.448;7.028;2022-10-18T11:39:57;18.20;81.30
913;DHT22;443;51.448;7.028;2022-10-18T11:42:31;18.30;81.30
913;DHT22;443;51.448;7.028;2022-10-18T11:45:06;18.30;81.20
913;DHT22;443;51.448;7.028;2022-10-18T11:47:39;18.30;81.20
913;DHT22;443;51.448;7.028;2022-10-18T11:50:20;18.30;81.10
913;DHT22;443;51.448;7.028;2022-10-18T11:52:57;18.30;81.10
913;DHT22;443;51.448;7.028;2022-10-18T11:55:40;18.30;81.10
913;DHT22;443;51.448;7.028;2022-10-18T11:58:23;18.30;80.90
913;DHT22;443;51.448;7.028;2022-10-18T12:00:54;18.30;80.90
913;DHT22;443;51.448;7.028;2022-10-18T12:03:36;18.30;81.00
913;DHT22;443;51.448;7.028;2022-10-18T12:06:08;18.40;80.60
913;DHT22;443;51.448;7.028;2022-10-18T12:08:40;18.40;80.70
913;DHT22;443;51.448;7.028;2022-10-18T12:11:13;18.40;80.60
913;DHT22;443;51.448;7.028;2022-10-18T12:13:46;18.40;80.80
913;DHT22;443;51.448;7.028;2022-10-18T12:16:15;18.30;80.80
913;DHT22;443;51.448;7.028;2022-10-18T12:18:48;18.40;80.60
913;DHT22;443;51.448;7.028;2022-10-18T12:21:19;18.40;80.70
913;DHT22;443;51.448;7.028;2022-10-18T12:23:51;18.40;80.80
913;DHT22;443;51.448;7.028;2022-10-18T12:26:20;18.30;80.80
913;DHT22;443;51.448;7.028;2022-10-18T12:28:56;18.40;80.40
913;DHT22;443;51.448;7.028;2022-10-18T12:31:28;18.40;80.50
913;DHT22;443;51.448;7.028;2022-10-18T12:34:02;18.40;80.40
913;DHT22;443;51.448;7.028;2022-10-18T12:36:50;18.40;80.40
913;DHT22;443;51.448;7.028;2022-10-18T12:39:22;18.30;80.60
913;DHT22;443;51.448;7.028;2022-10-18T12:41:54;18.40;80.70
913;DHT22;443;51.448;7.028;2022-10-18T12:44:26;18.40;80.70
913;DHT22;443;51.448;7.028;2022-10-18T12:46:56;18.40;80.70
913;DHT22;443;51.448;7.028;2022-10-18T12:49:27;18.40;80.80
913;DHT22;443;51.448;7.028;2022-10-18T12:51:56;18.40;80.40
913;DHT22;443;51.448;7.028;2022-10-18T12:54:26;18.40;80.40
913;DHT22;443;51.448;7.028;2022-10-18T12:56:56;18.40;80.40
913;DHT22;443;51.448;7.028;2022-10-18T12:59:50;18.40;80.60
913;DHT22;443;51.448;7.028;2022-10-18T13:02:26;18.40;80.70
913;DHT22;443;51.448;7.028;2022-10-18T13:04:54;18.40;80.30
913;DHT22;443;51.448;7.028;2022-10-18T13:07:34;18.40;80.50
913;DHT22;443;51.448;7.028;2022-10-18T13:10:38;18.40;80.50
913;DHT22;443;51.448;7.028;2022-10-18T13:13:43;18.50;80.40
913;DHT22;443;51.448;7.028;2022-10-18T13:16:31;18.50;80.20
913;DHT22;443;51.448;7.028;2022-10-18T13:19:23;18.50;80.20
913;DHT22;443;51.448;7.028;2022-10-18T13:21:59;18.50;80.40
913;DHT22;443;51.448;7.028;2022-10-18T13:24:38;18.60;80.20
913;DHT22;443;51.448;7.028;2022-10-18T13:27:22;18.60;80.10
913;DHT22;443;51.448;7.028;2022-10-18T13:30:12;18.60;80.10
913;DHT22;443;51.448;7.028;2022-10-18T13:32:49;18.60;79.50
913;DHT22;443;51.448;7.028;2022-10-18T13:35:50;18.70;79.30
913;DHT22;443;51.448;7.028;2022-10-18T13:38:37;18.80;79.30
913;DHT22;443;51.448;7.028;2022-10-18T13:41:07;18.80;78.90
913;DHT22;443;51.448;7.028;2022-10-18T13:44:08;19.00;78.20
913;DHT22;443;51.448;7.028;2022-10-18T13:49:48;19.00;78.30
913;DHT22;443;51.448;7.028;2022-10-18T13:52:24;18.90;78.50
913;DHT22;443;51.448;7.028;2022-10-18T13:55:01;18.90;78.70
913;DHT22;443;51.448;7.028;2022-10-18T13:57:41;19.00;78.30
913;DHT22;443;51.448;7.028;2022-10-18T14:00:28;19.10;77.90
913;DHT22;443;51.448;7.028;2022-10-18T14:06:07;19.10;77.10
913;DHT22;443;51.448;7.028;2022-10-18T14:08:39;19.10;78.10
913;DHT22;443;51.448;7.028;2022-10-18T14:11:14;19.10;77.90
913;DHT22;443;51.448;7.028;2022-10-18T14:13:46;19.10;78.00
913;DHT22;443;51.448;7.028;2022-10-18T14:16:29;19.10;77.70
913;DHT22;443;51.448;7.028;2022-10-18T14:19:04;19.10;77.60
913;DHT22;443;51.448;7.028;2022-10-18T14:21:37;19.10;77.70
913;DHT22;443;51.448;7.028;2022-10-18T14:24:14;19.20;77.50
913;DHT22;443;51.448;7.028;2022-10-18T14:26:42;19.30;77.20
913;DHT22;443;51.448;7.028;2022-10-18T14:29:16;19.40;77.10
913;DHT22;443;51.448;7.028;2022-10-18T14:31:52;19.40;76.90
913;DHT22;443;51.448;7.028;2022-10-18T14:34:20;19.40;76.70
913;DHT22;443;51.448;7.028;2022-10-18T14:36:49;19.50;76.80
913;DHT22;443;51.448;7.028;2022-10-18T14:39:20;19.50;76.60
913;DHT22;443;51.448;7.028;2022-10-18T14:41:49;19.50;76.50
913;DHT22;443;51.448;7.028;2022-10-18T14:44:18;19.60;76.30
913;DHT22;443;51.448;7.028;2022-10-18T14:46:47;19.60;76.40
913;DHT22;443;51.448;7.028;2022-10-18T14:49:15;19.60;76.20
913;DHT22;443;51.448;7.028;2022-10-18T14:51:44;19.60;76.30
913;DHT22;443;51.448;7.028;2022-10-18T14:54:16;19.50;76.20
913;DHT22;443;51.448;7.028;2022-10-18T14:56:43;19.50;76.50
913;DHT22;443;51.448;7.028;2022-10-18T14:59:15;19.60;76.40
913;DHT22;443;51.448;7.028;2022-10-18T15:01:51;19.60;76.40
913;DHT22;443;51.448;7.028;2022-10-18T15:04:19;19.60;76.30
913;DHT22;443;51.448;7.028;2022-10-18T15:06:47;19.60;76.20
913;DHT22;443;51.448;7.028;2022-10-18T15:09:20;19.60;76.10
913;DHT22;443;51.448;7.028;2022-10-18T15:11:47;19.70;76.10
913;DHT22;443;51.448;7.028;2022-10-18T15:14:17;19.80;75.80
913;DHT22;443;51.448;7.028;2022-10-18T15:16:45;19.80;75.60
913;DHT22;443;51.448;7.028;2022-10-18T15:19:30;19.90;75.40
913;DHT22;443;51.448;7.028;2022-10-18T15:21:59;19.90;75.30
913;DHT22;443;51.448;7.028;2022-10-18T15:24:31;19.90;75.10
913;DHT22;443;51.448;7.028;2022-10-18T15:27:02;20.00;74.90
913;DHT22;443;51.448;7.028;2022-10-18T15:29:34;20.10;74.90
913;DHT22;443;51.448;7.028;2022-10-18T15:32:13;20.10;74.70
913;DHT22;443;51.448;7.028;2022-10-18T15:34:41;20.10;74.50
913;DHT22;443;51.448;7.028;2022-10-18T15:37:26;20.10;74.30
913;DHT22;443;51.448;7.028;2022-10-18T15:40:16;20.20;74.40
913;DHT22;443;51.448;7.028;2022-10-18T15:42:43;20.20;74.40
913;DHT22;443;51.448;7.028;2022-10-18T15:45:28;20.10;74.70
913;DHT22;443;51.448;7.028;2022-10-18T15:47:58;19.90;75.00
913;DHT22;443;51.448;7.028;2022-10-18T15:50:37;19.80;75.50
913;DHT22;443;51.448;7.028;2022-10-18T15:53:40;19.70;75.80
913;DHT22;443;51.448;7.028;2022-10-18T15:56:12;19.70;76.10
913;DHT22;443;51.448;7.028;2022-10-18T15:58:51;19.60;76.20
913;DHT22;443;51.448;7.028;2022-10-18T16:01:21;19.60;76.40
913;DHT22;443;51.448;7.028;2022-10-18T16:03:50;19.50;76.50
913;DHT22;443;51.448;7.028;2022-10-18T16:06:17;19.50;76.70
913;DHT22;443;51.448;7.028;2022-10-18T16:08:46;19.40;76.70
913;DHT22;443;51.448;7.028;2022-10-18T16:11:16;19.40;77.00
913;DHT22;443;51.448;7.028;2022-10-18T16:13:44;19.40;77.10
913;DHT22;443;51.448;7.028;2022-10-18T16:16:13;19.30;77.20
913;DHT22;443;51.448;7.028;2022-10-18T16:18:41;19.30;77.30
913;DHT22;443;51.448;7.028;2022-10-18T16:21:14;19.30;77.40
913;DHT22;443;51.448;7.028;2022-10-18T16:23:41;19.20;77.40
913;DHT22;443;51.448;7.028;2022-10-18T16:26:10;19.20;77.60
913;DHT22;443;51.448;7.028;2022-10-18T16:28:38;19.20;77.60
913;DHT22;443;51.448;7.028;2022-10-18T16:31:06;19.20;77.60
913;DHT22;443;51.448;7.028;2022-10-18T16:33:33;19.20;77.70
913;DHT22;443;51.448;7.028;2022-10-18T16:36:01;19.20;77.80
913;DHT22;443;51.448;7.028;2022-10-18T16:38:31;19.10;77.90
913;DHT22;443;51.448;7.028;2022-10-18T16:40:58;19.10;77.90
913;DHT22;443;51.448;7.028;2022-10-18T16:43:25;19.10;78.20
913;DHT22;443;51.448;7.028;2022-10-18T16:45:53;19.10;78.30
913;DHT22;443;51.448;7.028;2022-10-18T16:48:21;19.00;78.20
913;DHT22;443;51.448;7.028;2022-10-18T16:50:49;19.00;78.30
913;DHT22;443;51.448;7.028;2022-10-18T16:53:16;19.00;78.40
913;DHT22;443;51.448;7.028;2022-10-18T16:55:50;19.00;78.50
913;DHT22;443;51.448;7.028;2022-10-18T16:58:18;18.90;78.60
913;DHT22;443;51.448;7.028;2022-10-18T17:00:45;18.90;78.60
913;DHT22;443;51.448;7.028;2022-10-18T17:03:13;18.90;78.80
913;DHT22;443;51.448;7.028;2022-10-18T17:05:40;18.80;78.80
913;DHT22;443;51.448;7.028;2022-10-18T17:08:14;18.80;78.90